sensor_id;sensor_type;location;lat;lon;timestamp;P1;durP1;ratioP1;P2;durP2;ratioP2
17937;SDS011;16051;53.024;8.630;2023-03-31T00:03:36;7.73;;;3.13;;
17937;SDS011;16051;53.024;8.630;2023-03-31T00:07:42;9.07;;;3.60;;
17937;SDS011;16051;53.024;8.630;2023-03-31T00:11:45;9.53;;;3.40;;
17937;SDS011;16051;53.024;8.630;2023-03-31T00:15:47;12.00;;;3.90;;
17937;SDS011;16051;53.024;8.630;2023-03-31T00:19:50;8.97;;;3.40;;
17937;SDS011;16051;53.024;8.630;2023-03-31T00:23:53;13.97;;;3.50;;
17937;SDS011;16051;53.024;8.630;2023-03-31T00:27:59;9.80;;;3.13;;
17937;SDS011;16051;53.024;8.630;2023-03-31T00:32:01;5.30;;;2.70;;
17937;SDS011;16051;53.024;8.630;2023-03-31T00:36:04;7.17;;;2.83;;
17937;SDS011;16051;53.024;8.630;2023-03-31T00:40:08;8.13;;;3.60;;
17937;SDS011;16051;53.024;8.630;2023-03-31T00:44:12;11.57;;;3.40;;
17937;SDS011;16051;53.024;8.630;2023-03-31T00:48:17;7.43;;;2.90;;
17937;SDS011;16051;53.024;8.630;2023-03-31T00:52:25;8.17;;;2.97;;
17937;SDS011;16051;53.024;8.630;2023-03-31T01:01:05;9.73;;;4.50;;
17937;SDS011;16051;53.024;8.630;2023-03-31T01:05:08;9.83;;;3.40;;
17937;SDS011;16051;53.024;8.630;2023-03-31T01:09:11;8.03;;;2.77;;
17937;SDS011;16051;53.024;8.630;2023-03-31T01:13:16;9.20;;;3.70;;
17937;SDS011;16051;53.024;8.630;2023-03-31T01:17:21;9.27;;;3.33;;
17937;SDS011;16051;53.024;8.630;2023-03-31T01:31:17;11.83;;;3.30;;
17937;SDS011;16051;53.024;8.630;2023-03-31T01:41:02;9.27;;;3.43;;
17937;SDS011;16051;53.024;8.630;2023-03-31T01:45:27;12.43;;;3.87;;
17937;SDS011;16051;53.024;8.630;2023-03-31T01:49:44;9.97;;;3.20;;
17937;SDS011;16051;53.024;8.630;2023-03-31T01:53:58;9.13;;;3.57;;
17937;SDS011;16051;53.024;8.630;2023-03-31T01:58:10;8.87;;;3.33;;
17937;SDS011;16051;53.024;8.630;2023-03-31T02:06:34;10.23;;;3.30;;
17937;SDS011;16051;53.024;8.630;2023-03-31T02:10:42;7.20;;;3.13;;
17937;SDS011;16051;53.024;8.630;2023-03-31T02:14:49;5.30;;;2.63;;
17937;SDS011;16051;53.024;8.630;2023-03-31T02:18:56;9.53;;;3.03;;
17937;SDS011;16051;53.024;8.630;2023-03-31T02:27:37;10.57;;;3.23;;
17937;SDS011;16051;53.024;8.630;2023-03-31T02:31:45;3.60;;;2.80;;
17937;SDS011;16051;53.024;8.630;2023-03-31T02:45:05;5.63;;;2.77;;
17937;SDS011;16051;53.024;8.630;2023-03-31T02:49:30;7.57;;;2.90;;
17937;SDS011;16051;53.024;8.630;2023-03-31T02:53:35;7.17;;;2.80;;
17937;SDS011;16051;53.024;8.630;2023-03-31T02:58:00;12.10;;;3.50;;
17937;SDS011;16051;53.024;8.630;2023-03-31T03:02:50;10.20;;;2.87;;
17937;SDS011;16051;53.024;8.630;2023-03-31T03:07:10;9.13;;;2.73;;
17937;SDS011;16051;53.024;8.630;2023-03-31T03:11:24;9.00;;;2.80;;
17937;SDS011;16051;53.024;8.630;2023-03-31T03:15:46;5.27;;;2.57;;
17937;SDS011;16051;53.024;8.630;2023-03-31T03:19:58;6.40;;;3.37;;
17937;SDS011;16051;53.024;8.630;2023-03-31T03:24:08;6.63;;;2.70;;
17937;SDS011;16051;53.024;8.630;2023-03-31T03:28:10;6.40;;;2.63;;
17937;SDS011;16051;53.024;8.630;2023-03-31T03:32:12;6.20;;;2.10;;
17937;SDS011;16051;53.024;8.630;2023-03-31T03:36:15;9.43;;;2.03;;
17937;SDS011;16051;53.024;8.630;2023-03-31T03:40:19;9.13;;;2.57;;
17937;SDS011;16051;53.024;8.630;2023-03-31T03:44:21;6.67;;;2.10;;
17937;SDS011;16051;53.024;8.630;2023-03-31T03:48:23;6.43;;;2.70;;
17937;SDS011;16051;53.024;8.630;2023-03-31T03:52:25;8.57;;;2.50;;
17937;SDS011;16051;53.024;8.630;2023-03-31T03:56:29;6.73;;;2.47;;
17937;SDS011;16051;53.024;8.630;2023-03-31T04:00:31;6.40;;;2.30;;
17937;SDS011;16051;53.024;8.630;2023-03-31T04:04:34;6.07;;;2.37;;
17937;SDS011;16051;53.024;8.630;2023-03-31T04:08:36;10.47;;;2.83;;
17937;SDS011;16051;53.024;8.630;2023-03-31T04:12:39;7.50;;;2.17;;
17937;SDS011;16051;53.024;8.630;2023-03-31T04:16:41;9.30;;;2.70;;
17937;SDS011;16051;53.024;8.630;2023-03-31T04:20:45;9.33;;;2.80;;
17937;SDS011;16051;53.024;8.630;2023-03-31T04:24:53;5.30;;;2.17;;
17937;SDS011;16051;53.024;8.630;2023-03-31T04:28:59;6.47;;;1.87;;
17937;SDS011;16051;53.024;8.630;2023-03-31T04:33:01;9.63;;;2.63;;
17937;SDS011;16051;53.024;8.630;2023-03-31T04:37:05;4.17;;;2.67;;
17937;SDS011;16051;53.024;8.630;2023-03-31T04:41:09;8.73;;;2.97;;
17937;SDS011;16051;53.024;8.630;2023-03-31T04:45:13;6.10;;;2.97;;
17937;SDS011;16051;53.024;8.630;2023-03-31T04:49:15;7.13;;;2.90;;
17937;SDS011;16051;53.024;8.630;2023-03-31T04:53:17;6.57;;;3.10;;
17937;SDS011;16051;53.024;8.630;2023-03-31T04:57:19;7.33;;;3.33;;
17937;SDS011;16051;53.024;8.630;2023-03-31T05:01:23;9.10;;;3.73;;
17937;SDS011;16051;53.024;8.630;2023-03-31T05:05:28;8.37;;;3.63;;
17937;SDS011;16051;53.024;8.630;2023-03-31T05:09:30;10.87;;;4.33;;
17937;SDS011;16051;53.024;8.630;2023-03-31T05:13:32;8.60;;;4.10;;
17937;SDS011;16051;53.024;8.630;2023-03-31T05:17:36;7.90;;;4.40;;
17937;SDS011;16051;53.024;8.630;2023-03-31T05:21:38;7.87;;;4.20;;
17937;SDS011;16051;53.024;8.630;2023-03-31T05:25:40;9.93;;;4.77;;
17937;SDS011;16051;53.024;8.630;2023-03-31T05:29:42;9.40;;;4.77;;
17937;SDS011;16051;53.024;8.630;2023-03-31T05:33:46;10.73;;;4.63;;
17937;SDS011;16051;53.024;8.630;2023-03-31T05:37:48;11.40;;;4.87;;
17937;SDS011;16051;53.024;8.630;2023-03-31T05:41:50;10.00;;;5.03;;
17937;SDS011;16051;53.024;8.630;2023-03-31T05:45:52;7.50;;;5.20;;
17937;SDS011;16051;53.024;8.630;2023-03-31T05:49:56;8.77;;;4.97;;
17937;SDS011;16051;53.024;8.630;2023-03-31T05:53:58;8.30;;;4.80;;
17937;SDS011;16051;53.024;8.630;2023-03-31T05:58:00;12.50;;;5.50;;
17937;SDS011;16051;53.024;8.630;2023-03-31T06:02:03;8.10;;;5.07;;
17937;SDS011;16051;53.024;8.630;2023-03-31T06:06:07;10.20;;;5.53;;
17937;SDS011;16051;53.024;8.630;2023-03-31T06:10:12;10.13;;;5.53;;
17937;SDS011;16051;53.024;8.630;2023-03-31T06:14:14;8.97;;;5.00;;
17937;SDS011;16051;53.024;8.630;2023-03-31T06:18:17;8.70;;;5.27;;
17937;SDS011;16051;53.024;8.630;2023-03-31T06:22:20;10.37;;;5.37;;
17937;SDS011;16051;53.024;8.630;2023-03-31T06:30:28;10.20;;;5.40;;
17937;SDS011;16051;53.024;8.630;2023-03-31T06:34:30;10.63;;;5.13;;
17937;SDS011;16051;53.024;8.630;2023-03-31T06:38:34;10.27;;;7.13;;
17937;SDS011;16051;53.024;8.630;2023-03-31T06:42:38;8.63;;;5.10;;
17937;SDS011;16051;53.024;8.630;2023-03-31T06:50:45;7.37;;;5.27;;
17937;SDS011;16051;53.024;8.630;2023-03-31T06:54:49;6.60;;;5.03;;
17937;SDS011;16051;53.024;8.630;2023-03-31T06:58:51;9.23;;;6.07;;
17937;SDS011;16051;53.024;8.630;2023-03-31T07:02:53;9.60;;;5.50;;
17937;SDS011;16051;53.024;8.630;2023-03-31T07:06:56;6.33;;;5.47;;
17937;SDS011;16051;53.024;8.630;2023-03-31T07:11:00;8.57;;;5.83;;
17937;SDS011;16051;53.024;8.630;2023-03-31T07:15:03;8.07;;;5.57;;
17937;SDS011;16051;53.024;8.630;2023-03-31T07:19:06;10.07;;;6.03;;
17937;SDS011;16051;53.024;8.630;2023-03-31T07:23:10;9.13;;;5.70;;
17937;SDS011;16051;53.024;8.630;2023-03-31T07:27:13;11.10;;;6.47;;
17937;SDS011;16051;53.024;8.630;2023-03-31T07:31:15;7.60;;;5.57;;
17937;SDS011;16051;53.024;8.630;2023-03-31T07:35:18;8.23;;;5.37;;
17937;SDS011;16051;53.024;8.630;2023-03-31T07:39:20;10.50;;;6.20;;
17937;SDS011;16051;53.024;8.630;2023-03-31T07:43:24;8.50;;;5.83;;
17937;SDS011;16051;53.024;8.630;2023-03-31T07:47:26;9.33;;;6.03;;
17937;SDS011;16051;53.024;8.630;2023-03-31T07:51:28;6.23;;;5.60;;
17937;SDS011;16051;53.024;8.630;2023-03-31T07:59:54;7.73;;;6.13;;
17937;SDS011;16051;53.024;8.630;2023-03-31T08:03:56;8.93;;;5.30;;
17937;SDS011;16051;53.024;8.630;2023-03-31T08:07:58;6.43;;;5.10;;
17937;SDS011;16051;53.024;8.630;2023-03-31T08:12:00;7.00;;;4.93;;
17937;SDS011;16051;53.024;8.630;2023-03-31T08:16:04;8.67;;;4.73;;
17937;SDS011;16051;53.024;8.630;2023-03-31T08:24:27;9.00;;;5.70;;
17937;SDS011;16051;53.024;8.630;2023-03-31T08:28:29;9.57;;;4.80;;
17937;SDS011;16051;53.024;8.630;2023-03-31T08:32:32;7.43;;;4.80;;
17937;SDS011;16051;53.024;8.630;2023-03-31T08:36:35;7.17;;;4.60;;
17937;SDS011;16051;53.024;8.630;2023-03-31T08:40:37;6.60;;;4.60;;
17937;SDS011;16051;53.024;8.630;2023-03-31T08:44:49;8.07;;;4.13;;
17937;SDS011;16051;53.024;8.630;2023-03-31T08:49:01;6.50;;;3.80;;
17937;SDS011;16051;53.024;8.630;2023-03-31T08:53:06;5.87;;;3.80;;
17937;SDS011;16051;53.024;8.630;2023-03-31T08:57:21;8.20;;;4.20;;
17937;SDS011;16051;53.024;8.630;2023-03-31T09:01:37;6.20;;;4.37;;
17937;SDS011;16051;53.024;8.630;2023-03-31T09:05:50;7.67;;;3.77;;
17937;SDS011;16051;53.024;8.630;2023-03-31T09:10:02;7.17;;;3.87;;
17937;SDS011;16051;53.024;8.630;2023-03-31T09:14:24;6.17;;;3.73;;
17937;SDS011;16051;53.024;8.630;2023-03-31T09:18:36;6.07;;;3.60;;
17937;SDS011;16051;53.024;8.630;2023-03-31T09:27:15;10.60;;;4.97;;
17937;SDS011;16051;53.024;8.630;2023-03-31T09:31:18;6.70;;;3.27;;
17937;SDS011;16051;53.024;8.630;2023-03-31T09:35:23;5.70;;;3.50;;
17937;SDS011;16051;53.024;8.630;2023-03-31T09:39:29;3.33;;;3.00;;
17937;SDS011;16051;53.024;8.630;2023-03-31T09:43:31;5.10;;;2.63;;
17937;SDS011;16051;53.024;8.630;2023-03-31T09:47:36;5.67;;;2.80;;
17937;SDS011;16051;53.024;8.630;2023-03-31T09:51:44;3.80;;;3.00;;
17937;SDS011;16051;53.024;8.630;2023-03-31T09:55:53;5.90;;;3.30;;
17937;SDS011;16051;53.024;8.630;2023-03-31T10:04:18;7.47;;;3.70;;
17937;SDS011;16051;53.024;8.630;2023-03-31T10:08:26;7.30;;;3.83;;
17937;SDS011;16051;53.024;8.630;2023-03-31T10:12:34;6.30;;;2.60;;
17937;SDS011;16051;53.024;8.630;2023-03-31T10:16:42;5.23;;;2.37;;
17937;SDS011;16051;53.024;8.630;2023-03-31T10:20:48;5.47;;;2.50;;
17937;SDS011;16051;53.024;8.630;2023-03-31T10:25:09;6.83;;;2.57;;
17937;SDS011;16051;53.024;8.630;2023-03-31T10:29:20;4.30;;;2.40;;
17937;SDS011;16051;53.024;8.630;2023-03-31T10:33:26;4.73;;;2.30;;
17937;SDS011;16051;53.024;8.630;2023-03-31T10:37:33;3.30;;;2.50;;
17937;SDS011;16051;53.024;8.630;2023-03-31T10:41:37;10.50;;;2.93;;
17937;SDS011;16051;53.024;8.630;2023-03-31T10:45:42;8.20;;;2.60;;
17937;SDS011;16051;53.024;8.630;2023-03-31T10:49:50;5.80;;;2.53;;
17937;SDS011;16051;53.024;8.630;2023-03-31T10:53:59;4.67;;;2.23;;
17937;SDS011;16051;53.024;8.630;2023-03-31T10:58:05;4.33;;;2.70;;
17937;SDS011;16051;53.024;8.630;2023-03-31T11:02:42;3.40;;;2.40;;
17937;SDS011;16051;53.024;8.630;2023-03-31T11:07:27;4.47;;;2.63;;
17937;SDS011;16051;53.024;8.630;2023-03-31T11:11:53;3.67;;;2.63;;
17937;SDS011;16051;53.024;8.630;2023-03-31T11:16:08;2.53;;;2.20;;
17937;SDS011;16051;53.024;8.630;2023-03-31T11:20:25;3.20;;;2.40;;
17937;SDS011;16051;53.024;8.630;2023-03-31T11:29:20;2.40;;;2.03;;
17937;SDS011;16051;53.024;8.630;2023-03-31T11:33:46;3.50;;;1.70;;
17937;SDS011;16051;53.024;8.630;2023-03-31T11:38:13;2.20;;;1.23;;
17937;SDS011;16051;53.024;8.630;2023-03-31T11:42:45;1.40;;;1.30;;
17937;SDS011;16051;53.024;8.630;2023-03-31T11:46:53;2.93;;;1.03;;
17937;SDS011;16051;53.024;8.630;2023-03-31T11:55:21;1.50;;;1.00;;
17937;SDS011;16051;53.024;8.630;2023-03-31T11:59:27;1.23;;;1.00;;
17937;SDS011;16051;53.024;8.630;2023-03-31T12:03:37;1.80;;;1.10;;
17937;SDS011;16051;53.024;8.630;2023-03-31T12:07:49;2.87;;;1.30;;
17937;SDS011;16051;53.024;8.630;2023-03-31T12:12:03;2.97;;;1.17;;
17937;SDS011;16051;53.024;8.630;2023-03-31T12:16:18;1.30;;;0.87;;
17937;SDS011;16051;53.024;8.630;2023-03-31T12:20:25;1.93;;;1.10;;
17937;SDS011;16051;53.024;8.630;2023-03-31T12:24:33;1.97;;;0.90;;
17937;SDS011;16051;53.024;8.630;2023-03-31T12:28:55;1.40;;;1.07;;
17937;SDS011;16051;53.024;8.630;2023-03-31T12:33:04;1.33;;;0.90;;
17937;SDS011;16051;53.024;8.630;2023-03-31T12:42:07;1.83;;;1.00;;
17937;SDS011;16051;53.024;8.630;2023-03-31T12:46:41;1.80;;;1.33;;
17937;SDS011;16051;53.024;8.630;2023-03-31T12:51:09;4.50;;;1.30;;
17937;SDS011;16051;53.024;8.630;2023-03-31T12:55:53;1.03;;;0.80;;
17937;SDS011;16051;53.024;8.630;2023-03-31T13:04:33;1.27;;;0.80;;
17937;SDS011;16051;53.024;8.630;2023-03-31T13:08:53;1.90;;;1.23;;
17937;SDS011;16051;53.024;8.630;2023-03-31T13:12:59;1.37;;;1.20;;
17937;SDS011;16051;53.024;8.630;2023-03-31T13:17:11;1.00;;;1.00;;
17937;SDS011;16051;53.024;8.630;2023-03-31T13:26:40;1.87;;;1.40;;
17937;SDS011;16051;53.024;8.630;2023-03-31T13:30:48;1.37;;;1.20;;
17937;SDS011;16051;53.024;8.630;2023-03-31T13:39:38;1.57;;;1.30;;
17937;SDS011;16051;53.024;8.630;2023-03-31T13:48:50;2.33;;;1.20;;
17937;SDS011;16051;53.024;8.630;2023-03-31T13:53:32;3.80;;;1.87;;
17937;SDS011;16051;53.024;8.630;2023-03-31T14:03:18;2.67;;;1.40;;
17937;SDS011;16051;53.024;8.630;2023-03-31T14:12:33;3.33;;;1.70;;
17937;SDS011;16051;53.024;8.630;2023-03-31T14:16:43;1.73;;;1.20;;
17937;SDS011;16051;53.024;8.630;2023-03-31T14:20:59;1.30;;;0.97;;
17937;SDS011;16051;53.024;8.630;2023-03-31T14:25:19;3.40;;;1.37;;
17937;SDS011;16051;53.024;8.630;2023-03-31T14:29:38;1.93;;;1.20;;
17937;SDS011;16051;53.024;8.630;2023-03-31T14:33:56;4.40;;;1.87;;
17937;SDS011;16051;53.024;8.630;2023-03-31T14:38:21;3.13;;;1.53;;
17937;SDS011;16051;53.024;8.630;2023-03-31T14:42:25;3.63;;;1.57;;
17937;SDS011;16051;53.024;8.630;2023-03-31T14:46:45;2.33;;;1.57;;
17937;SDS011;16051;53.024;8.630;2023-03-31T14:50:47;2.57;;;1.90;;
17937;SDS011;16051;53.024;8.630;2023-03-31T14:55:02;3.57;;;1.60;;
17937;SDS011;16051;53.024;8.630;2023-03-31T14:59:06;3.27;;;1.50;;
17937;SDS011;16051;53.024;8.630;2023-03-31T15:03:11;3.57;;;1.67;;
17937;SDS011;16051;53.024;8.630;2023-03-31T15:07:16;2.83;;;1.47;;
17937;SDS011;16051;53.024;8.630;2023-03-31T15:11:20;4.47;;;1.80;;
17937;SDS011;16051;53.024;8.630;2023-03-31T15:15:22;3.70;;;1.33;;
17937;SDS011;16051;53.024;8.630;2023-03-31T15:19:34;4.57;;;1.50;;
17937;SDS011;16051;53.024;8.630;2023-03-31T15:23:36;3.17;;;1.20;;
17937;SDS011;16051;53.024;8.630;2023-03-31T15:27:43;2.40;;;1.60;;
17937;SDS011;16051;53.024;8.630;2023-03-31T15:31:50;4.00;;;1.63;;
17937;SDS011;16051;53.024;8.630;2023-03-31T15:36:06;2.50;;;1.50;;
17937;SDS011;16051;53.024;8.630;2023-03-31T15:40:14;3.73;;;1.40;;
17937;SDS011;16051;53.024;8.630;2023-03-31T15:44:34;4.13;;;1.37;;
17937;SDS011;16051;53.024;8.630;2023-03-31T15:48:48;2.40;;;1.33;;
17937;SDS011;16051;53.024;8.630;2023-03-31T15:52:53;5.63;;;1.60;;
17937;SDS011;16051;53.024;8.630;2023-03-31T15:56:58;3.17;;;1.70;;
17937;SDS011;16051;53.024;8.630;2023-03-31T16:01:03;3.20;;;1.60;;
17937;SDS011;16051;53.024;8.630;2023-03-31T16:05:06;4.60;;;2.03;;
17937;SDS011;16051;53.024;8.630;2023-03-31T16:09:38;8.17;;;3.40;;
17937;SDS011;16051;53.024;8.630;2023-03-31T16:13:46;5.40;;;2.33;;
17937;SDS011;16051;53.024;8.630;2023-03-31T16:17:54;4.33;;;2.07;;
17937;SDS011;16051;53.024;8.630;2023-03-31T16:22:01;5.17;;;2.50;;
17937;SDS011;16051;53.024;8.630;2023-03-31T16:26:04;4.87;;;2.50;;
17937;SDS011;16051;53.024;8.630;2023-03-31T16:30:08;4.90;;;2.60;;
17937;SDS011;16051;53.024;8.630;2023-03-31T16:34:16;6.00;;;1.93;;
17937;SDS011;16051;53.024;8.630;2023-03-31T16:38:18;4.73;;;2.37;;
17937;SDS011;16051;53.024;8.630;2023-03-31T16:42:22;8.93;;;3.67;;
17937;SDS011;16051;53.024;8.630;2023-03-31T16:46:25;2.77;;;2.23;;
17937;SDS011;16051;53.024;8.630;2023-03-31T16:50:29;4.47;;;1.93;;
17937;SDS011;16051;53.024;8.630;2023-03-31T16:54:31;4.43;;;2.50;;
17937;SDS011;16051;53.024;8.630;2023-03-31T16:58:46;4.87;;;2.57;;
17937;SDS011;16051;53.024;8.630;2023-03-31T17:02:49;4.67;;;2.33;;
17937;SDS011;16051;53.024;8.630;2023-03-31T17:06:52;4.53;;;2.70;;
17937;SDS011;16051;53.024;8.630;2023-03-31T17:10:58;4.27;;;2.50;;
17937;SDS011;16051;53.024;8.630;2023-03-31T17:15:12;8.57;;;3.30;;
17937;SDS011;16051;53.024;8.630;2023-03-31T17:19:16;5.03;;;2.67;;
17937;SDS011;16051;53.024;8.630;2023-03-31T17:23:20;5.37;;;2.80;;
17937;SDS011;16051;53.024;8.630;2023-03-31T17:27:22;4.30;;;2.70;;
17937;SDS011;16051;53.024;8.630;2023-03-31T17:31:25;3.20;;;2.30;;
17937;SDS011;16051;53.024;8.630;2023-03-31T17:35:31;3.43;;;2.30;;
17937;SDS011;16051;53.024;8.630;2023-03-31T17:39:34;4.17;;;2.50;;
17937;SDS011;16051;53.024;8.630;2023-03-31T17:43:42;4.87;;;2.60;;
17937;SDS011;16051;53.024;8.630;2023-03-31T17:52:33;5.53;;;2.73;;
17937;SDS011;16051;53.024;8.630;2023-03-31T17:56:39;5.23;;;2.63;;
17937;SDS011;16051;53.024;8.630;2023-03-31T18:00:41;9.73;;;3.03;;
17937;SDS011;16051;53.024;8.630;2023-03-31T18:04:44;4.50;;;2.63;;
17937;SDS011;16051;53.024;8.630;2023-03-31T18:08:50;6.90;;;2.73;;
17937;SDS011;16051;53.024;8.630;2023-03-31T18:13:03;7.80;;;2.40;;
17937;SDS011;16051;53.024;8.630;2023-03-31T18:17:05;7.10;;;2.80;;
17937;SDS011;16051;53.024;8.630;2023-03-31T18:21:11;5.20;;;2.60;;
17937;SDS011;16051;53.024;8.630;2023-03-31T18:25:14;6.67;;;2.47;;
17937;SDS011;16051;53.024;8.630;2023-03-31T18:29:17;5.10;;;2.40;;
17937;SDS011;16051;53.024;8.630;2023-03-31T18:33:20;6.07;;;2.90;;
17937;SDS011;16051;53.024;8.630;2023-03-31T18:37:22;7.37;;;2.93;;
17937;SDS011;16051;53.024;8.630;2023-03-31T18:45:54;5.37;;;2.50;;
17937;SDS011;16051;53.024;8.630;2023-03-31T18:49:57;5.97;;;2.33;;
17937;SDS011;16051;53.024;8.630;2023-03-31T18:54:00;3.70;;;1.30;;
17937;SDS011;16051;53.024;8.630;2023-03-31T18:58:02;3.37;;;1.70;;
17937;SDS011;16051;53.024;8.630;2023-03-31T19:02:05;2.70;;;1.07;;
17937;SDS011;16051;53.024;8.630;2023-03-31T19:06:08;1.13;;;1.00;;
17937;SDS011;16051;53.024;8.630;2023-03-31T19:10:12;1.20;;;0.80;;
17937;SDS011;16051;53.024;8.630;2023-03-31T19:14:20;1.97;;;0.80;;
17937;SDS011;16051;53.024;8.630;2023-03-31T19:18:24;2.53;;;1.00;;
17937;SDS011;16051;53.024;8.630;2023-03-31T19:22:34;1.37;;;0.87;;
17937;SDS011;16051;53.024;8.630;2023-03-31T19:26:36;3.93;;;0.90;;
17937;SDS011;16051;53.024;8.630;2023-03-31T19:30:39;3.37;;;1.43;;
17937;SDS011;16051;53.024;8.630;2023-03-31T19:34:44;2.07;;;1.10;;
17937;SDS011;16051;53.024;8.630;2023-03-31T19:38:46;2.70;;;1.03;;
17937;SDS011;16051;53.024;8.630;2023-03-31T19:42:52;1.93;;;0.90;;
17937;SDS011;16051;53.024;8.630;2023-03-31T19:46:54;2.53;;;1.00;;
17937;SDS011;16051;53.024;8.630;2023-03-31T19:50:59;1.60;;;1.30;;
17937;SDS011;16051;53.024;8.630;2023-03-31T19:55:04;1.00;;;0.90;;
17937;SDS011;16051;53.024;8.630;2023-03-31T20:03:13;2.33;;;1.00;;
17937;SDS011;16051;53.024;8.630;2023-03-31T20:07:16;3.10;;;1.13;;
17937;SDS011;16051;53.024;8.630;2023-03-31T20:11:18;2.87;;;1.20;;
17937;SDS011;16051;53.024;8.630;2023-03-31T20:15:36;4.10;;;0.77;;
17937;SDS011;16051;53.024;8.630;2023-03-31T20:19:38;2.70;;;1.00;;
17937;SDS011;16051;53.024;8.630;2023-03-31T20:23:42;2.60;;;1.20;;
17937;SDS011;16051;53.024;8.630;2023-03-31T20:27:45;4.30;;;1.30;;
17937;SDS011;16051;53.024;8.630;2023-03-31T20:31:47;2.13;;;1.00;;
17937;SDS011;16051;53.024;8.630;2023-03-31T20:40:31;2.23;;;1.83;;
17937;SDS011;16051;53.024;8.630;2023-03-31T20:44:33;1.57;;;1.00;;
17937;SDS011;16051;53.024;8.630;2023-03-31T20:52:45;3.67;;;1.63;;
17937;SDS011;16051;53.024;8.630;2023-03-31T20:56:49;2.33;;;1.30;;
17937;SDS011;16051;53.024;8.630;2023-03-31T21:10:10;2.10;;;1.30;;
17937;SDS011;16051;53.024;8.630;2023-03-31T21:14:34;1.83;;;1.63;;
17937;SDS011;16051;53.024;8.630;2023-03-31T21:18:46;3.77;;;1.90;;
17937;SDS011;16051;53.024;8.630;2023-03-31T21:31:40;4.03;;;1.90;;
17937;SDS011;16051;53.024;8.630;2023-03-31T21:35:48;1.80;;;1.60;;
17937;SDS011;16051;53.024;8.630;2023-03-31T21:39:51;6.10;;;2.40;;
17937;SDS011;16051;53.024;8.630;2023-03-31T21:43:53;2.93;;;2.10;;
17937;SDS011;16051;53.024;8.630;2023-03-31T21:47:59;3.57;;;2.37;;
17937;SDS011;16051;53.024;8.630;2023-03-31T21:52:01;2.77;;;2.07;;
17937;SDS011;16051;53.024;8.630;2023-03-31T21:56:10;3.87;;;3.00;;
17937;SDS011;16051;53.024;8.630;2023-03-31T22:00:13;2.73;;;2.40;;
17937;SDS011;16051;53.024;8.630;2023-03-31T22:04:16;3.23;;;2.20;;
17937;SDS011;16051;53.024;8.630;2023-03-31T22:08:20;3.70;;;2.60;;
17937;SDS011;16051;53.024;8.630;2023-03-31T22:12:22;3.53;;;2.63;;
17937;SDS011;16051;53.024;8.630;2023-03-31T22:16:24;5.03;;;3.13;;
17937;SDS011;16051;53.024;8.630;2023-03-31T22:20:28;5.47;;;3.40;;
17937;SDS011;16051;53.024;8.630;2023-03-31T22:24:31;5.03;;;3.43;;
17937;SDS011;16051;53.024;8.630;2023-03-31T22:28:33;5.17;;;3.27;;
17937;SDS011;16051;53.024;8.630;2023-03-31T22:32:35;5.47;;;4.40;;
17937;SDS011;16051;53.024;8.630;2023-03-31T22:36:39;4.50;;;3.83;;
17937;SDS011;16051;53.024;8.630;2023-03-31T22:40:41;4.57;;;4.03;;
17937;SDS011;16051;53.024;8.630;2023-03-31T22:44:43;4.77;;;3.80;;
17937;SDS011;16051;53.024;8.630;2023-03-31T22:48:51;3.67;;;3.37;;
17937;SDS011;16051;53.024;8.630;2023-03-31T22:52:54;4.53;;;3.63;;
17937;SDS011;16051;53.024;8.630;2023-03-31T22:57:03;7.60;;;3.97;;
17937;SDS011;16051;53.024;8.630;2023-03-31T23:01:05;4.47;;;3.60;;
17937;SDS011;16051;53.024;8.630;2023-03-31T23:05:08;3.77;;;3.47;;
17937;SDS011;16051;53.024;8.630;2023-03-31T23:09:12;5.20;;;4.10;;
17937;SDS011;16051;53.024;8.630;2023-03-31T23:13:23;6.77;;;4.80;;
17937;SDS011;16051;53.024;8.630;2023-03-31T23:17:25;7.17;;;5.27;;
17937;SDS011;16051;53.024;8.630;2023-03-31T23:21:34;5.80;;;4.90;;
17937;SDS011;16051;53.024;8.630;2023-03-31T23:25:40;8.13;;;5.70;;
17937;SDS011;16051;53.024;8.630;2023-03-31T23:29:42;8.53;;;5.83;;
17937;SDS011;16051;53.024;8.630;2023-03-31T23:33:45;8.57;;;5.53;;
17937;SDS011;16051;53.024;8.630;2023-03-31T23:37:47;7.47;;;5.40;;
17937;SDS011;16051;53.024;8.630;2023-03-31T23:41:51;6.67;;;5.57;;
17937;SDS011;16051;53.024;8.630;2023-03-31T23:45:53;7.93;;;6.00;;
17937;SDS011;16051;53.024;8.630;2023-03-31T23:49:55;7.47;;;6.17;;
17937;SDS011;16051;53.024;8.630;2023-03-31T23:53:58;7.37;;;6.03;;
17937;SDS011;16051;53.024;8.630;2023-03-31T23:58:01;7.10;;;6.03;;
